createdAt,value
2023-03-17T00:01:54.717Z,80.00
2023-03-17T00:04:24.381Z,86.60
2023-03-17T00:06:53.072Z,79.90
2023-03-17T00:09:22.516Z,67.70
2023-03-17T00:11:50.463Z,66.80
2023-03-17T00:14:18.157Z,65.40
2023-03-17T00:16:50.136Z,56.90
2023-03-17T00:19:22.848Z,53.40
2023-03-17T00:21:50.154Z,58.70
2023-03-17T00:24:17.358Z,68.90
2023-03-17T00:26:44.612Z,57.00
2023-03-17T00:29:12.139Z,58.30
2023-03-17T00:31:39.766Z,62.60
2023-03-17T00:34:08.171Z,57.40
2023-03-17T00:36:36.085Z,41.80
2023-03-17T00:39:06.097Z,48.30
2023-03-17T00:41:33.191Z,50.50
2023-03-17T00:44:00.216Z,58.20
2023-03-17T00:46:35.656Z,60.20
2023-03-17T00:49:09.771Z,55.20
2023-03-17T00:51:36.795Z,43.40
2023-03-17T00:54:04.152Z,36.80
2023-03-17T00:56:31.585Z,28.40
2023-03-17T00:58:58.709Z,26.50
2023-03-17T01:01:25.809Z,26.00
2023-03-17T01:03:52.938Z,25.30
2023-03-17T01:06:20.325Z,25.40
2023-03-17T01:08:48.178Z,29.10
2023-03-17T01:11:19.006Z,26.50
2023-03-17T01:13:47.853Z,29.70
2023-03-17T01:16:15.842Z,28.80
2023-03-17T01:18:43.730Z,29.30
2023-03-17T01:21:11.079Z,30.10
2023-03-17T01:23:38.330Z,28.30
2023-03-17T01:26:06.684Z,33.40
2023-03-17T01:28:34.211Z,28.70
2023-03-17T01:31:02.879Z,24.40
2023-03-17T01:33:30.167Z,23.60
2023-03-17T01:35:57.647Z,23.30
2023-03-17T01:38:25.826Z,26.90
2023-03-17T01:40:53.785Z,25.00
2023-03-17T01:43:29.599Z,25.80
2023-03-17T01:46:20.990Z,40.30
2023-03-17T01:49:03.787Z,30.10
2023-03-17T01:51:36.800Z,32.20
2023-03-17T01:54:08.931Z,30.90
2023-03-17T01:56:38.087Z,32.40
2023-03-17T01:59:10.167Z,34.60
2023-03-17T02:01:41.286Z,34.40
2023-03-17T02:04:09.230Z,39.70
2023-03-17T02:06:42.114Z,37.60
2023-03-17T02:09:14.771Z,30.00
2023-03-17T02:11:45.661Z,31.50
2023-03-17T02:14:12.816Z,27.50
2023-03-17T02:16:41.124Z,27.90
2023-03-17T02:19:09.272Z,32.90
2023-03-17T02:21:54.687Z,33.00
2023-03-17T02:24:31.028Z,30.90
2023-03-17T02:27:03.951Z,31.30
2023-03-17T02:29:35.065Z,31.60
2023-03-17T02:32:02.834Z,30.00
2023-03-17T02:34:30.232Z,51.40
2023-03-17T02:36:58.656Z,75.10
2023-03-17T02:39:26.132Z,46.60
2023-03-17T02:41:53.360Z,39.70
2023-03-17T02:44:20.501Z,39.70
2023-03-17T02:46:47.763Z,37.20
2023-03-17T02:49:15.803Z,30.80
2023-03-17T02:51:42.853Z,28.30
2023-03-17T02:54:09.948Z,23.40
2023-03-17T02:56:37.998Z,24.40
2023-03-17T02:59:06.305Z,25.50
2023-03-17T03:01:34.133Z,25.60
2023-03-17T03:04:01.459Z,25.90
2023-03-17T03:06:28.561Z,26.60
2023-03-17T03:08:55.673Z,26.90
2023-03-17T03:11:23.326Z,25.60
2023-03-17T03:13:50.515Z,23.20
2023-03-17T03:16:17.686Z,20.30
2023-03-17T03:18:44.838Z,20.80
2023-03-17T03:21:11.936Z,17.90
2023-03-17T03:23:39.086Z,17.10
2023-03-17T03:26:06.188Z,18.10
2023-03-17T03:28:33.529Z,17.00
2023-03-17T03:31:00.831Z,20.50
2023-03-17T03:33:28.586Z,19.20
2023-03-17T03:35:55.759Z,18.10
2023-03-17T03:38:23.222Z,19.10
2023-03-17T03:40:50.309Z,18.90
2023-03-17T03:43:23.240Z,18.80
2023-03-17T03:45:51.815Z,19.70
2023-03-17T03:48:19.315Z,20.00
2023-03-17T03:50:46.702Z,21.10
2023-03-17T03:53:14.514Z,23.20
2023-03-17T03:55:42.061Z,19.30
2023-03-17T03:58:09.140Z,33.00
2023-03-17T04:00:37.345Z,24.40
2023-03-17T04:03:04.520Z,25.20
2023-03-17T04:05:31.905Z,22.80
2023-03-17T04:07:59.098Z,22.10
2023-03-17T04:10:26.565Z,41.20
2023-03-17T04:12:53.766Z,24.60
2023-03-17T04:15:21.234Z,21.50
2023-03-17T04:17:48.301Z,21.50
2023-03-17T04:20:17.120Z,20.70
2023-03-17T04:22:44.344Z,21.30
2023-03-17T04:25:14.403Z,24.20
2023-03-17T04:27:42.992Z,19.50
2023-03-17T04:30:13.934Z,21.00
2023-03-17T04:32:41.939Z,21.70
2023-03-17T04:35:14.047Z,27.00
2023-03-17T04:37:41.169Z,25.60
2023-03-17T04:40:10.082Z,25.90
2023-03-17T04:42:37.916Z,24.90
2023-03-17T04:45:06.503Z,21.90
2023-03-17T04:47:33.997Z,21.40
2023-03-17T04:50:01.656Z,21.70
2023-03-17T04:52:28.799Z,33.80
2023-03-17T04:54:56.014Z,29.20
2023-03-17T04:57:24.631Z,25.70
2023-03-17T04:59:51.927Z,22.40
2023-03-17T05:02:19.336Z,21.20
2023-03-17T05:04:46.817Z,19.90
2023-03-17T05:07:14.271Z,20.20
2023-03-17T05:09:42.070Z,21.60
2023-03-17T05:12:10.037Z,21.60
2023-03-17T05:14:37.548Z,21.00
2023-03-17T05:17:04.896Z,21.40
2023-03-17T05:19:31.978Z,22.20
2023-03-17T05:21:59.430Z,23.60
2023-03-17T05:24:27.165Z,23.50
2023-03-17T05:26:54.330Z,26.40
2023-03-17T05:29:21.724Z,25.30
2023-03-17T05:31:48.863Z,25.00
2023-03-17T05:34:16.131Z,45.70
2023-03-17T05:36:43.761Z,31.50
2023-03-17T05:39:13.402Z,24.40
2023-03-17T05:41:41.626Z,24.70
2023-03-17T05:44:09.345Z,25.10
2023-03-17T05:46:36.622Z,24.80
2023-03-17T05:49:03.935Z,24.50
2023-03-17T05:51:30.975Z,26.10
2023-03-17T05:53:58.490Z,25.50
2023-03-17T05:56:27.421Z,26.20
2023-03-17T05:58:54.490Z,25.10
2023-03-17T06:01:21.893Z,46.70
2023-03-17T06:03:50.151Z,38.80
2023-03-17T06:06:17.360Z,25.20
2023-03-17T06:08:45.093Z,29.80
2023-03-17T06:11:12.208Z,27.10
2023-03-17T06:13:39.327Z,26.70
2023-03-17T06:16:07.123Z,44.40
2023-03-17T06:18:34.346Z,45.40
2023-03-17T06:21:02.002Z,41.30
2023-03-17T06:23:29.076Z,36.20
2023-03-17T06:25:56.477Z,33.50
2023-03-17T06:28:24.230Z,29.10
2023-03-17T06:30:51.364Z,29.20
2023-03-17T06:33:19.334Z,32.80
2023-03-17T06:35:46.913Z,42.40
2023-03-17T06:38:14.179Z,49.90
2023-03-17T06:40:41.842Z,55.50
2023-03-17T06:43:09.119Z,47.70
2023-03-17T06:45:36.218Z,42.90
2023-03-17T06:48:03.752Z,36.40
2023-03-17T06:50:30.988Z,37.20
2023-03-17T06:52:58.153Z,53.80
2023-03-17T06:55:25.265Z,53.30
2023-03-17T06:57:52.638Z,42.00
2023-03-17T07:00:20.192Z,35.70
2023-03-17T07:02:47.548Z,49.70
2023-03-17T07:05:14.872Z,42.70
2023-03-17T07:07:41.964Z,44.20
2023-03-17T07:10:13.851Z,43.70
2023-03-17T07:12:41.451Z,55.50
2023-03-17T07:15:09.435Z,121.90
2023-03-17T07:17:36.607Z,72.10
2023-03-17T07:20:04.039Z,49.20
2023-03-17T07:22:31.147Z,50.00
2023-03-17T07:24:58.313Z,60.90
2023-03-17T07:27:26.546Z,58.40
2023-03-17T07:29:53.972Z,46.60
2023-03-17T07:32:21.099Z,41.00
2023-03-17T07:34:48.550Z,32.90
2023-03-17T07:37:15.804Z,28.40
2023-03-17T07:39:43.772Z,30.40
2023-03-17T07:42:15.441Z,29.50
2023-03-17T07:44:42.759Z,27.10
2023-03-17T07:47:11.520Z,32.80
2023-03-17T07:49:42.068Z,43.90
2023-03-17T07:52:11.627Z,32.30
2023-03-17T07:54:41.551Z,31.60
2023-03-17T07:57:10.227Z,44.90
2023-03-17T07:59:38.381Z,29.50
2023-03-17T08:02:05.877Z,30.30
2023-03-17T08:04:33.118Z,28.90
2023-03-17T08:07:00.535Z,26.40
2023-03-17T08:09:27.672Z,33.60
2023-03-17T08:11:54.775Z,29.50
2023-03-17T08:14:22.011Z,29.20
2023-03-17T08:16:49.325Z,30.90
2023-03-17T08:19:16.657Z,26.10
2023-03-17T08:21:43.858Z,25.50
2023-03-17T08:24:11.156Z,27.80
2023-03-17T08:26:38.418Z,23.20
2023-03-17T08:29:05.752Z,18.50
2023-03-17T08:31:34.105Z,20.40
2023-03-17T08:34:02.824Z,17.20
2023-03-17T08:36:30.024Z,19.80
2023-03-17T08:38:57.172Z,18.40
2023-03-17T08:41:27.056Z,17.90
2023-03-17T08:43:54.999Z,18.80
2023-03-17T08:46:25.481Z,19.80
2023-03-17T08:48:54.297Z,16.90
2023-03-17T08:51:24.582Z,16.30
2023-03-17T08:53:53.529Z,17.20
2023-03-17T08:56:21.305Z,13.50
2023-03-17T08:58:49.073Z,14.00
2023-03-17T09:01:17.388Z,10.80
2023-03-17T09:03:45.734Z,10.20
2023-03-17T09:06:13.877Z,11.80
2023-03-17T09:08:45.067Z,13.10
2023-03-17T09:11:16.749Z,12.40
2023-03-17T09:13:46.691Z,14.80
2023-03-17T09:16:15.004Z,14.90
2023-03-17T09:18:42.522Z,15.10
2023-03-17T09:21:12.294Z,15.30
2023-03-17T09:23:39.892Z,11.40
2023-03-17T09:26:07.405Z,11.70
2023-03-17T09:28:34.619Z,12.20
2023-03-17T09:31:05.357Z,11.90
2023-03-17T09:33:32.604Z,9.80
2023-03-17T09:35:59.735Z,11.50
2023-03-17T09:38:28.654Z,9.50
2023-03-17T09:41:20.786Z,9.90
2023-03-17T09:44:04.573Z,10.50
2023-03-17T09:46:56.175Z,11.60
2023-03-17T09:49:48.559Z,10.20
2023-03-17T09:52:18.839Z,9.00
2023-03-17T09:54:49.722Z,13.90
2023-03-17T09:57:22.689Z,10.10
2023-03-17T09:59:55.265Z,8.60
2023-03-17T10:02:27.828Z,9.80
2023-03-17T10:04:55.242Z,10.90
2023-03-17T10:07:58.111Z,13.30
2023-03-17T10:10:42.650Z,13.10
2023-03-17T10:13:14.181Z,14.60
2023-03-17T10:15:50.643Z,13.90
2023-03-17T10:18:22.042Z,12.00
2023-03-17T10:20:54.659Z,13.90
2023-03-17T10:23:27.841Z,14.10
2023-03-17T10:25:59.931Z,10.30
2023-03-17T10:28:32.706Z,10.20
2023-03-17T10:31:14.065Z,10.40
2023-03-17T10:33:41.223Z,9.00
2023-03-17T10:36:10.741Z,10.20
2023-03-17T10:38:37.959Z,9.80
2023-03-17T10:41:13.598Z,7.00
2023-03-17T10:46:24.534Z,14.30
2023-03-17T10:48:58.377Z,9.00
2023-03-17T10:51:32.164Z,6.90
2023-03-17T10:54:09.818Z,6.80
2023-03-17T10:56:39.985Z,7.80
2023-03-17T10:59:15.269Z,9.00
2023-03-17T11:01:49.902Z,7.60
2023-03-17T11:04:38.469Z,8.50
2023-03-17T11:07:12.612Z,10.30
2023-03-17T11:09:39.790Z,10.60
2023-03-17T11:12:23.020Z,8.50
2023-03-17T11:14:50.272Z,9.50
2023-03-17T11:17:45.609Z,9.10
2023-03-17T11:20:42.287Z,15.80
2023-03-17T11:23:28.167Z,8.10
2023-03-17T11:26:17.683Z,9.30
2023-03-17T11:28:51.755Z,8.50
2023-03-17T11:31:34.305Z,10.40
2023-03-17T11:34:30.782Z,10.10
2023-03-17T11:40:19.600Z,10.70
2023-03-17T11:43:11.551Z,11.80
2023-03-17T11:45:45.444Z,11.00
2023-03-17T11:48:21.460Z,9.10
2023-03-17T11:51:14.309Z,13.50
2023-03-17T11:53:59.640Z,11.40
2023-03-17T11:56:32.859Z,15.80
2023-03-17T11:59:05.150Z,10.80
2023-03-17T12:01:54.946Z,9.00
2023-03-17T12:04:37.974Z,10.10
2023-03-17T12:07:29.116Z,7.80
2023-03-17T12:10:15.734Z,9.90
2023-03-17T12:12:50.834Z,7.90
2023-03-17T12:15:34.823Z,6.50
2023-03-17T12:18:26.604Z,6.70
2023-03-17T12:20:57.538Z,9.80
2023-03-17T12:23:39.876Z,8.20
2023-03-17T12:26:16.517Z,9.60
2023-03-17T12:28:57.392Z,10.50
2023-03-17T12:31:33.467Z,10.20
2023-03-17T12:34:24.236Z,9.00
2023-03-17T12:36:52.347Z,12.60
2023-03-17T12:39:29.013Z,9.40
2023-03-17T12:42:02.304Z,9.70
2023-03-17T12:44:47.577Z,10.40
2023-03-17T12:47:33.434Z,11.90
2023-03-17T12:50:10.764Z,6.70
2023-03-17T12:53:09.447Z,9.80
2023-03-17T12:55:37.051Z,11.60
2023-03-17T12:58:15.088Z,25.60
2023-03-17T13:00:56.367Z,11.00
2023-03-17T13:03:23.874Z,17.00
2023-03-17T13:05:55.269Z,13.00
2023-03-17T13:08:28.277Z,10.60
2023-03-17T13:11:19.768Z,10.60
2023-03-17T13:13:50.101Z,15.00
2023-03-17T13:16:39.506Z,13.00
2023-03-17T13:19:17.543Z,10.40
2023-03-17T13:21:50.645Z,10.60
2023-03-17T13:24:18.660Z,15.20
2023-03-17T13:27:04.710Z,14.00
2023-03-17T13:32:31.995Z,24.30
2023-03-17T13:35:02.355Z,16.00
2023-03-17T13:37:35.819Z,44.60
2023-03-17T13:40:45.801Z,16.40
2023-03-17T13:43:37.274Z,14.10
2023-03-17T13:46:39.879Z,9.40
2023-03-17T13:49:26.951Z,10.90
2023-03-17T13:52:16.302Z,8.40
2023-03-17T13:54:58.881Z,7.00
2023-03-17T13:57:29.234Z,9.90
2023-03-17T14:00:29.236Z,8.20
2023-03-17T14:03:30.325Z,9.80
2023-03-17T14:06:01.373Z,9.20
2023-03-17T14:08:46.507Z,9.10
2023-03-17T14:11:38.420Z,8.30
2023-03-17T14:14:31.161Z,8.70
2023-03-17T14:17:07.178Z,8.80
2023-03-17T14:19:34.857Z,8.30
2023-03-17T14:22:04.696Z,7.90
2023-03-17T14:24:33.936Z,9.30
2023-03-17T14:27:08.095Z,14.30
2023-03-17T14:29:37.318Z,9.90
2023-03-17T14:32:07.430Z,11.10
2023-03-17T14:34:34.591Z,7.90
2023-03-17T14:37:03.666Z,8.10
2023-03-17T14:39:30.812Z,11.50
2023-03-17T14:42:03.054Z,11.00
2023-03-17T14:44:40.864Z,12.30
2023-03-17T14:47:20.013Z,11.20
2023-03-17T14:49:48.288Z,12.60
2023-03-17T14:52:19.477Z,14.50
2023-03-17T14:54:51.556Z,17.10
2023-03-17T14:57:23.007Z,15.90
2023-03-17T15:00:01.908Z,16.20
2023-03-17T15:02:37.961Z,14.90
2023-03-17T15:05:17.482Z,16.80
2023-03-17T15:07:44.609Z,17.90
2023-03-17T15:10:18.129Z,22.70
2023-03-17T15:12:46.792Z,15.20
2023-03-17T15:15:27.235Z,23.00
2023-03-17T15:17:56.933Z,19.30
2023-03-17T15:20:25.090Z,21.80
2023-03-17T15:22:58.361Z,23.60
2023-03-17T15:25:46.648Z,26.20
2023-03-17T15:28:16.778Z,64.70
2023-03-17T15:30:48.065Z,38.50
2023-03-17T15:33:29.539Z,47.40
2023-03-17T15:36:00.132Z,29.20
2023-03-17T15:38:27.764Z,30.20
2023-03-17T15:40:55.418Z,36.10
2023-03-17T15:43:22.823Z,40.40
2023-03-17T15:46:07.719Z,24.60
2023-03-17T15:48:36.810Z,18.70
2023-03-17T15:51:06.061Z,33.60
2023-03-17T15:53:33.311Z,31.90
2023-03-17T15:56:00.487Z,16.90
2023-03-17T15:58:27.714Z,17.60
2023-03-17T16:00:57.559Z,14.40
2023-03-17T16:03:29.700Z,15.30
2023-03-17T16:05:57.859Z,30.20
2023-03-17T16:08:25.118Z,22.30
2023-03-17T16:10:52.377Z,16.50
2023-03-17T16:13:19.852Z,26.90
2023-03-17T16:15:56.459Z,27.40
2023-03-17T16:18:36.972Z,41.50
2023-03-17T16:21:05.384Z,78.00
2023-03-17T16:23:36.898Z,51.70
2023-03-17T16:26:14.932Z,41.90
2023-03-17T16:28:45.038Z,31.50
2023-03-17T16:31:19.130Z,41.00
2023-03-17T16:33:46.414Z,39.00
2023-03-17T16:36:18.618Z,19.80
2023-03-17T16:38:46.587Z,22.50
2023-03-17T16:41:17.242Z,21.10
2023-03-17T16:43:46.854Z,31.40
2023-03-17T16:46:14.135Z,17.00
2023-03-17T16:48:41.305Z,24.50
2023-03-17T16:51:08.326Z,27.20
2023-03-17T16:53:36.090Z,33.90
2023-03-17T16:56:03.714Z,30.90
2023-03-17T16:58:34.546Z,24.40
2023-03-17T17:01:04.429Z,27.50
2023-03-17T17:03:31.920Z,23.30
2023-03-17T17:05:59.120Z,23.80
2023-03-17T17:08:26.270Z,23.90
2023-03-17T17:10:53.404Z,30.90
2023-03-17T17:13:20.666Z,51.80
2023-03-17T17:15:47.873Z,32.70
2023-03-17T17:18:18.299Z,26.60
2023-03-17T17:20:46.332Z,17.40
2023-03-17T17:23:16.404Z,23.50
2023-03-17T17:25:44.049Z,15.70
2023-03-17T17:28:13.061Z,31.60
2023-03-17T17:30:45.036Z,19.70
2023-03-17T17:33:12.716Z,19.10
2023-03-17T17:35:41.312Z,18.00
2023-03-17T17:38:17.752Z,22.50
2023-03-17T17:40:44.887Z,26.90
2023-03-17T17:43:12.009Z,32.00
2023-03-17T17:45:39.280Z,17.70
2023-03-17T17:48:06.355Z,19.40
2023-03-17T17:50:34.057Z,18.40
2023-03-17T17:53:05.705Z,19.50
2023-03-17T17:55:34.000Z,19.90
2023-03-17T17:58:01.249Z,21.70
2023-03-17T18:00:29.009Z,16.70
2023-03-17T18:02:56.733Z,17.50
2023-03-17T18:05:25.034Z,14.00
2023-03-17T18:07:52.108Z,13.30
2023-03-17T18:10:22.639Z,26.50
2023-03-17T18:12:49.924Z,43.00
2023-03-17T18:15:17.142Z,24.70
2023-03-17T18:17:44.259Z,20.60
2023-03-17T18:20:13.847Z,15.00
2023-03-17T18:22:41.053Z,11.50
2023-03-17T18:25:10.437Z,43.50
2023-03-17T18:27:38.547Z,39.80
2023-03-17T18:30:07.688Z,49.60
2023-03-17T18:32:35.550Z,33.80
2023-03-17T18:35:08.908Z,23.30
2023-03-17T18:37:37.176Z,34.20
2023-03-17T18:40:14.256Z,23.80
2023-03-17T18:42:41.731Z,19.80
2023-03-17T18:45:10.431Z,18.70
2023-03-17T18:47:39.115Z,14.80
2023-03-17T18:50:08.145Z,13.60
2023-03-17T18:52:37.504Z,15.30
2023-03-17T18:55:05.309Z,14.80
2023-03-17T18:57:32.445Z,20.40
2023-03-17T18:59:59.559Z,20.10
2023-03-17T19:02:26.800Z,21.00
2023-03-17T19:04:53.997Z,16.20
2023-03-17T19:07:22.447Z,26.10
2023-03-17T19:09:49.708Z,20.60
2023-03-17T19:12:16.834Z,17.50
2023-03-17T19:14:44.021Z,18.40
2023-03-17T19:17:11.235Z,19.20
2023-03-17T19:19:38.741Z,17.00
2023-03-17T19:22:06.377Z,16.60
2023-03-17T19:24:37.777Z,22.00
2023-03-17T19:27:05.720Z,17.60
2023-03-17T19:29:33.518Z,19.10
2023-03-17T19:32:00.824Z,19.10
2023-03-17T19:34:28.225Z,12.20
2023-03-17T19:36:55.765Z,18.40
2023-03-17T19:39:23.426Z,19.50
2023-03-17T19:41:55.046Z,20.40
2023-03-17T19:44:22.493Z,19.30
2023-03-17T19:46:49.689Z,16.20
2023-03-17T19:49:17.798Z,27.50
2023-03-17T19:51:44.862Z,19.30
2023-03-17T19:54:12.004Z,17.00
2023-03-17T19:56:39.188Z,15.40
2023-03-17T19:59:07.514Z,22.10
2023-03-17T20:01:37.905Z,14.40
2023-03-17T20:04:07.174Z,15.10
2023-03-17T20:06:34.819Z,15.70
2023-03-17T20:09:08.817Z,15.10
2023-03-17T20:11:36.309Z,26.60
2023-03-17T20:14:03.473Z,13.60
2023-03-17T20:16:33.699Z,32.00
2023-03-17T20:19:01.594Z,20.70
2023-03-17T20:21:28.849Z,18.30
2023-03-17T20:23:56.975Z,18.70
2023-03-17T20:26:24.682Z,25.20
2023-03-17T20:28:51.804Z,33.40
2023-03-17T20:31:19.523Z,66.80
2023-03-17T20:33:46.727Z,69.70
2023-03-17T20:36:14.182Z,24.00
2023-03-17T20:38:43.811Z,20.80
2023-03-17T20:41:14.444Z,19.70
2023-03-17T20:43:41.996Z,18.90
2023-03-17T20:46:23.927Z,26.30
2023-03-17T20:48:58.917Z,28.90
2023-03-17T20:51:27.019Z,32.00
2023-03-17T20:53:55.252Z,24.40
2023-03-17T20:56:23.667Z,17.80
2023-03-17T20:58:53.343Z,23.30
2023-03-17T21:01:21.551Z,18.10
2023-03-17T21:03:50.159Z,16.50
2023-03-17T21:06:18.410Z,24.50
2023-03-17T21:08:46.313Z,25.80
2023-03-17T21:11:17.447Z,41.90
2023-03-17T21:13:44.819Z,60.80
2023-03-17T21:16:18.209Z,41.70
2023-03-17T21:18:45.620Z,24.50
2023-03-17T21:21:12.888Z,21.80
2023-03-17T21:23:41.354Z,19.40
2023-03-17T21:26:11.975Z,18.80
2023-03-17T21:28:41.528Z,19.20
2023-03-17T21:31:09.684Z,16.70
2023-03-17T21:33:37.241Z,24.00
2023-03-17T21:36:04.982Z,18.80
2023-03-17T21:38:32.769Z,14.80
2023-03-17T21:41:21.537Z,19.10
2023-03-17T21:43:48.862Z,22.30
2023-03-17T21:46:16.102Z,22.90
2023-03-17T21:48:44.192Z,19.30
2023-03-17T21:51:11.543Z,13.40
2023-03-17T21:53:38.871Z,19.80
2023-03-17T21:56:06.497Z,22.00
2023-03-17T21:58:33.610Z,84.70
2023-03-17T22:01:01.559Z,28.90
2023-03-17T22:03:29.151Z,18.60
2023-03-17T22:05:56.763Z,19.40
2023-03-17T22:08:23.824Z,19.10
2023-03-17T22:10:52.200Z,18.80
2023-03-17T22:13:19.360Z,18.30
2023-03-17T22:15:46.455Z,18.50
2023-03-17T22:18:13.593Z,22.10
2023-03-17T22:20:40.682Z,24.40
2023-03-17T22:23:07.859Z,18.70
2023-03-17T22:25:35.000Z,30.90
2023-03-17T22:28:02.129Z,18.40
2023-03-17T22:30:29.234Z,20.20
2023-03-17T22:32:56.693Z,17.20
2023-03-17T22:35:25.151Z,15.30
2023-03-17T22:37:52.282Z,17.00
2023-03-17T22:40:19.548Z,14.40
2023-03-17T22:42:47.111Z,12.40
2023-03-17T22:45:14.694Z,21.30
2023-03-17T22:47:41.844Z,20.00
2023-03-17T22:50:09.651Z,16.00
2023-03-17T22:52:37.315Z,16.10
2023-03-17T22:55:04.883Z,16.20
2023-03-17T22:57:32.090Z,21.70
2023-03-17T22:59:59.363Z,20.40
2023-03-17T23:02:26.671Z,21.80
2023-03-17T23:04:53.770Z,18.90
2023-03-17T23:07:20.844Z,17.40
2023-03-17T23:09:48.043Z,21.20
2023-03-17T23:12:15.221Z,16.10
2023-03-17T23:14:42.319Z,15.80
2023-03-17T23:17:09.519Z,15.80
2023-03-17T23:19:36.740Z,17.30
2023-03-17T23:22:03.950Z,16.90
2023-03-17T23:24:30.925Z,14.50
2023-03-17T23:26:58.005Z,16.60
2023-03-17T23:29:25.176Z,13.20
2023-03-17T23:31:52.195Z,12.00
2023-03-17T23:34:19.227Z,14.30
2023-03-17T23:36:46.409Z,11.10
2023-03-17T23:39:13.492Z,13.90
2023-03-17T23:41:41.536Z,14.80
2023-03-17T23:44:10.248Z,14.00
2023-03-17T23:46:39.281Z,12.70
2023-03-17T23:49:07.492Z,12.00
2023-03-17T23:51:34.616Z,11.40
2023-03-17T23:54:01.870Z,12.40
2023-03-17T23:56:28.967Z,14.20
2023-03-17T23:58:56.076Z,12.60
